sensor_id;sensor_type;location;lat;lon;timestamp;P1;durP1;ratioP1;P2;durP2;ratioP2
27257;SDS011;62045;49.986;8.672;2022-08-18T00:01:27;2.63;;;1.83;;
27257;SDS011;62045;49.986;8.672;2022-08-18T00:06:29;2.83;;;2.20;;
27257;SDS011;62045;49.986;8.672;2022-08-18T00:11:32;2.88;;;2.28;;
27257;SDS011;62045;49.986;8.672;2022-08-18T00:16:35;3.25;;;2.50;;
27257;SDS011;62045;49.986;8.672;2022-08-18T00:21:36;2.85;;;1.90;;
27257;SDS011;62045;49.986;8.672;2022-08-18T00:26:38;3.30;;;2.40;;
27257;SDS011;62045;49.986;8.672;2022-08-18T00:31:39;3.10;;;2.13;;
27257;SDS011;62045;49.986;8.672;2022-08-18T00:36:40;2.92;;;2.25;;
27257;SDS011;62045;49.986;8.672;2022-08-18T00:41:42;2.80;;;2.10;;
27257;SDS011;62045;49.986;8.672;2022-08-18T00:46:43;2.90;;;2.20;;
27257;SDS011;62045;49.986;8.672;2022-08-18T00:51:45;2.90;;;2.28;;
27257;SDS011;62045;49.986;8.672;2022-08-18T00:56:57;3.47;;;2.65;;
27257;SDS011;62045;49.986;8.672;2022-08-18T01:02:02;3.20;;;2.60;;
27257;SDS011;62045;49.986;8.672;2022-08-18T01:07:06;3.42;;;2.75;;
27257;SDS011;62045;49.986;8.672;2022-08-18T01:12:11;2.70;;;2.10;;
27257;SDS011;62045;49.986;8.672;2022-08-18T01:17:12;2.93;;;2.30;;
27257;SDS011;62045;49.986;8.672;2022-08-18T01:22:17;3.30;;;2.47;;
27257;SDS011;62045;49.986;8.672;2022-08-18T01:27:22;2.78;;;2.38;;
27257;SDS011;62045;49.986;8.672;2022-08-18T01:32:24;3.00;;;2.20;;
27257;SDS011;62045;49.986;8.672;2022-08-18T01:37:24;2.85;;;2.35;;
27257;SDS011;62045;49.986;8.672;2022-08-18T01:42:27;2.67;;;2.15;;
27257;SDS011;62045;49.986;8.672;2022-08-18T01:47:28;2.47;;;1.70;;
27257;SDS011;62045;49.986;8.672;2022-08-18T01:52:29;2.58;;;2.00;;
27257;SDS011;62045;49.986;8.672;2022-08-18T01:57:32;2.75;;;2.22;;
27257;SDS011;62045;49.986;8.672;2022-08-18T02:02:35;3.13;;;2.58;;
27257;SDS011;62045;49.986;8.672;2022-08-18T02:07:36;2.97;;;2.20;;
27257;SDS011;62045;49.986;8.672;2022-08-18T02:12:39;3.15;;;2.65;;
27257;SDS011;62045;49.986;8.672;2022-08-18T02:17:42;2.75;;;2.13;;
27257;SDS011;62045;49.986;8.672;2022-08-18T02:22:45;2.95;;;2.20;;
27257;SDS011;62045;49.986;8.672;2022-08-18T02:27:48;3.45;;;2.38;;
27257;SDS011;62045;49.986;8.672;2022-08-18T02:32:49;2.70;;;2.10;;
27257;SDS011;62045;49.986;8.672;2022-08-18T02:37:50;2.75;;;2.33;;
27257;SDS011;62045;49.986;8.672;2022-08-18T02:42:52;3.55;;;1.98;;
27257;SDS011;62045;49.986;8.672;2022-08-18T02:47:54;3.63;;;2.30;;
27257;SDS011;62045;49.986;8.672;2022-08-18T02:52:56;3.22;;;2.45;;
27257;SDS011;62045;49.986;8.672;2022-08-18T02:57:58;2.47;;;2.03;;
27257;SDS011;62045;49.986;8.672;2022-08-18T03:02:59;3.57;;;2.70;;
27257;SDS011;62045;49.986;8.672;2022-08-18T03:08:00;2.70;;;2.17;;
27257;SDS011;62045;49.986;8.672;2022-08-18T03:13:02;2.55;;;2.13;;
27257;SDS011;62045;49.986;8.672;2022-08-18T03:18:03;3.00;;;2.30;;
27257;SDS011;62045;49.986;8.672;2022-08-18T03:23:04;3.65;;;2.28;;
27257;SDS011;62045;49.986;8.672;2022-08-18T03:28:06;2.83;;;2.22;;
27257;SDS011;62045;49.986;8.672;2022-08-18T03:33:07;2.50;;;1.90;;
27257;SDS011;62045;49.986;8.672;2022-08-18T03:38:08;3.05;;;2.20;;
27257;SDS011;62045;49.986;8.672;2022-08-18T03:43:10;3.10;;;2.28;;
27257;SDS011;62045;49.986;8.672;2022-08-18T03:48:11;3.10;;;2.30;;
27257;SDS011;62045;49.986;8.672;2022-08-18T03:53:12;2.63;;;2.20;;
27257;SDS011;62045;49.986;8.672;2022-08-18T03:58:14;2.83;;;2.30;;
27257;SDS011;62045;49.986;8.672;2022-08-18T04:03:15;2.77;;;2.23;;
27257;SDS011;62045;49.986;8.672;2022-08-18T04:08:16;2.63;;;2.00;;
27257;SDS011;62045;49.986;8.672;2022-08-18T04:13:18;2.47;;;1.95;;
27257;SDS011;62045;49.986;8.672;2022-08-18T04:18:19;2.63;;;2.20;;
27257;SDS011;62045;49.986;8.672;2022-08-18T04:23:20;2.60;;;2.10;;
27257;SDS011;62045;49.986;8.672;2022-08-18T04:28:22;2.78;;;1.85;;
27257;SDS011;62045;49.986;8.672;2022-08-18T04:33:23;3.53;;;2.00;;
27257;SDS011;62045;49.986;8.672;2022-08-18T04:38:24;3.00;;;2.20;;
27257;SDS011;62045;49.986;8.672;2022-08-18T04:43:27;2.85;;;2.08;;
27257;SDS011;62045;49.986;8.672;2022-08-18T04:48:28;2.77;;;2.20;;
27257;SDS011;62045;49.986;8.672;2022-08-18T04:53:30;2.33;;;1.85;;
27257;SDS011;62045;49.986;8.672;2022-08-18T04:58:32;2.65;;;2.17;;
27257;SDS011;62045;49.986;8.672;2022-08-18T05:03:33;2.63;;;2.10;;
27257;SDS011;62045;49.986;8.672;2022-08-18T05:08:34;4.72;;;2.20;;
27257;SDS011;62045;49.986;8.672;2022-08-18T05:13:36;3.45;;;2.47;;
27257;SDS011;62045;49.986;8.672;2022-08-18T05:18:37;3.10;;;2.20;;
27257;SDS011;62045;49.986;8.672;2022-08-18T05:23:37;2.95;;;2.10;;
27257;SDS011;62045;49.986;8.672;2022-08-18T05:28:40;2.95;;;2.38;;
27257;SDS011;62045;49.986;8.672;2022-08-18T05:33:42;2.58;;;2.00;;
27257;SDS011;62045;49.986;8.672;2022-08-18T05:38:46;3.43;;;2.50;;
27257;SDS011;62045;49.986;8.672;2022-08-18T05:43:55;3.08;;;2.33;;
27257;SDS011;62045;49.986;8.672;2022-08-18T05:48:57;3.33;;;2.35;;
27257;SDS011;62045;49.986;8.672;2022-08-18T05:53:58;3.65;;;2.30;;
27257;SDS011;62045;49.986;8.672;2022-08-18T05:59:01;3.17;;;2.33;;
27257;SDS011;62045;49.986;8.672;2022-08-18T06:04:04;6.38;;;2.97;;
27257;SDS011;62045;49.986;8.672;2022-08-18T06:09:09;4.75;;;2.60;;
27257;SDS011;62045;49.986;8.672;2022-08-18T06:14:14;3.03;;;2.20;;
27257;SDS011;62045;49.986;8.672;2022-08-18T06:19:24;4.72;;;2.42;;
27257;SDS011;62045;49.986;8.672;2022-08-18T06:24:34;3.13;;;2.38;;
27257;SDS011;62045;49.986;8.672;2022-08-18T06:29:41;4.38;;;2.88;;
27257;SDS011;62045;49.986;8.672;2022-08-18T06:35:00;6.63;;;2.70;;
27257;SDS011;62045;49.986;8.672;2022-08-18T06:40:09;4.35;;;2.60;;
27257;SDS011;62045;49.986;8.672;2022-08-18T06:45:12;5.57;;;2.60;;
27257;SDS011;62045;49.986;8.672;2022-08-18T06:50:17;4.30;;;2.60;;
27257;SDS011;62045;49.986;8.672;2022-08-18T06:55:30;3.35;;;2.45;;
27257;SDS011;62045;49.986;8.672;2022-08-18T07:00:34;3.63;;;2.47;;
27257;SDS011;62045;49.986;8.672;2022-08-18T07:05:36;4.35;;;2.30;;
27257;SDS011;62045;49.986;8.672;2022-08-18T07:10:53;4.10;;;2.78;;
27257;SDS011;62045;49.986;8.672;2022-08-18T07:16:13;4.43;;;2.50;;
27257;SDS011;62045;49.986;8.672;2022-08-18T07:21:23;3.47;;;2.53;;
27257;SDS011;62045;49.986;8.672;2022-08-18T07:26:26;3.38;;;2.60;;
27257;SDS011;62045;49.986;8.672;2022-08-18T07:31:33;3.95;;;2.60;;
27257;SDS011;62045;49.986;8.672;2022-08-18T07:36:40;5.13;;;2.47;;
27257;SDS011;62045;49.986;8.672;2022-08-18T07:41:47;4.20;;;2.60;;
27257;SDS011;62045;49.986;8.672;2022-08-18T07:46:53;4.40;;;2.15;;
27257;SDS011;62045;49.986;8.672;2022-08-18T07:51:58;4.05;;;2.90;;
27257;SDS011;62045;49.986;8.672;2022-08-18T07:57:04;4.10;;;2.50;;
27257;SDS011;62045;49.986;8.672;2022-08-18T08:02:21;3.78;;;2.60;;
27257;SDS011;62045;49.986;8.672;2022-08-18T08:07:34;3.30;;;2.42;;
27257;SDS011;62045;49.986;8.672;2022-08-18T08:12:44;3.43;;;2.43;;
27257;SDS011;62045;49.986;8.672;2022-08-18T08:17:52;4.28;;;2.58;;
27257;SDS011;62045;49.986;8.672;2022-08-18T08:23:00;3.33;;;2.35;;
27257;SDS011;62045;49.986;8.672;2022-08-18T08:28:10;4.22;;;2.58;;
27257;SDS011;62045;49.986;8.672;2022-08-18T08:33:23;3.88;;;2.45;;
27257;SDS011;62045;49.986;8.672;2022-08-18T08:38:33;4.53;;;2.42;;
27257;SDS011;62045;49.986;8.672;2022-08-18T08:43:43;3.75;;;2.78;;
27257;SDS011;62045;49.986;8.672;2022-08-18T08:48:51;3.55;;;2.60;;
27257;SDS011;62045;49.986;8.672;2022-08-18T08:53:58;4.03;;;2.47;;
27257;SDS011;62045;49.986;8.672;2022-08-18T08:59:06;3.58;;;2.50;;
27257;SDS011;62045;49.986;8.672;2022-08-18T09:04:15;3.25;;;2.45;;
27257;SDS011;62045;49.986;8.672;2022-08-18T09:09:40;2.90;;;2.20;;
27257;SDS011;62045;49.986;8.672;2022-08-18T09:14:57;4.18;;;2.58;;
27257;SDS011;62045;49.986;8.672;2022-08-18T09:20:27;3.75;;;2.70;;
27257;SDS011;62045;49.986;8.672;2022-08-18T09:25:47;3.17;;;2.38;;
27257;SDS011;62045;49.986;8.672;2022-08-18T09:30:52;2.88;;;2.33;;
27257;SDS011;62045;49.986;8.672;2022-08-18T09:36:21;3.40;;;2.53;;
27257;SDS011;62045;49.986;8.672;2022-08-18T09:41:35;4.95;;;2.88;;
27257;SDS011;62045;49.986;8.672;2022-08-18T09:46:50;4.20;;;2.40;;
27257;SDS011;62045;49.986;8.672;2022-08-18T09:51:55;3.95;;;2.70;;
27257;SDS011;62045;49.986;8.672;2022-08-18T10:13:28;4.13;;;2.75;;
27257;SDS011;62045;49.986;8.672;2022-08-18T10:18:37;4.32;;;2.70;;
27257;SDS011;62045;49.986;8.672;2022-08-18T10:23:52;4.10;;;2.92;;
27257;SDS011;62045;49.986;8.672;2022-08-18T10:28:56;5.20;;;3.20;;
27257;SDS011;62045;49.986;8.672;2022-08-18T10:34:00;5.65;;;3.00;;
27257;SDS011;62045;49.986;8.672;2022-08-18T10:39:05;3.85;;;2.85;;
27257;SDS011;62045;49.986;8.672;2022-08-18T10:44:12;5.00;;;3.28;;
27257;SDS011;62045;49.986;8.672;2022-08-18T10:49:16;4.03;;;3.00;;
27257;SDS011;62045;49.986;8.672;2022-08-18T10:54:24;4.07;;;2.72;;
27257;SDS011;62045;49.986;8.672;2022-08-18T10:59:35;4.20;;;3.10;;
27257;SDS011;62045;49.986;8.672;2022-08-18T11:04:43;4.80;;;3.03;;
27257;SDS011;62045;49.986;8.672;2022-08-18T11:09:47;3.80;;;3.03;;
27257;SDS011;62045;49.986;8.672;2022-08-18T11:15:00;4.45;;;3.15;;
27257;SDS011;62045;49.986;8.672;2022-08-18T11:20:10;6.25;;;3.50;;
27257;SDS011;62045;49.986;8.672;2022-08-18T11:25:18;5.65;;;3.28;;
27257;SDS011;62045;49.986;8.672;2022-08-18T11:30:24;6.07;;;3.33;;
27257;SDS011;62045;49.986;8.672;2022-08-18T11:35:28;5.55;;;3.60;;
27257;SDS011;62045;49.986;8.672;2022-08-18T11:40:37;5.07;;;3.42;;
27257;SDS011;62045;49.986;8.672;2022-08-18T11:45:51;4.72;;;3.33;;
27257;SDS011;62045;49.986;8.672;2022-08-18T11:50:58;4.15;;;3.08;;
27257;SDS011;62045;49.986;8.672;2022-08-18T11:56:04;5.45;;;3.97;;
27257;SDS011;62045;49.986;8.672;2022-08-18T12:01:11;4.53;;;3.35;;
27257;SDS011;62045;49.986;8.672;2022-08-18T12:06:33;7.60;;;4.20;;
27257;SDS011;62045;49.986;8.672;2022-08-18T12:11:36;12.77;;;6.20;;
27257;SDS011;62045;49.986;8.672;2022-08-18T12:16:50;10.88;;;5.20;;
27257;SDS011;62045;49.986;8.672;2022-08-18T12:21:52;9.55;;;5.45;;
27257;SDS011;62045;49.986;8.672;2022-08-18T12:26:56;14.10;;;5.00;;
27257;SDS011;62045;49.986;8.672;2022-08-18T12:31:58;10.85;;;5.20;;
27257;SDS011;62045;49.986;8.672;2022-08-18T12:36:59;7.85;;;5.20;;
27257;SDS011;62045;49.986;8.672;2022-08-18T12:42:02;10.68;;;5.07;;
27257;SDS011;62045;49.986;8.672;2022-08-18T12:47:04;8.77;;;4.93;;
27257;SDS011;62045;49.986;8.672;2022-08-18T12:52:10;10.43;;;5.32;;
27257;SDS011;62045;49.986;8.672;2022-08-18T12:57:14;8.07;;;4.90;;
27257;SDS011;62045;49.986;8.672;2022-08-18T13:02:19;9.32;;;4.85;;
27257;SDS011;62045;49.986;8.672;2022-08-18T13:07:20;9.73;;;5.82;;
27257;SDS011;62045;49.986;8.672;2022-08-18T13:12:22;8.75;;;5.68;;
27257;SDS011;62045;49.986;8.672;2022-08-18T13:17:23;7.90;;;5.87;;
27257;SDS011;62045;49.986;8.672;2022-08-18T13:22:24;9.77;;;6.25;;
27257;SDS011;62045;49.986;8.672;2022-08-18T13:27:26;8.75;;;6.10;;
27257;SDS011;62045;49.986;8.672;2022-08-18T13:32:27;10.47;;;6.77;;
27257;SDS011;62045;49.986;8.672;2022-08-18T13:37:28;9.15;;;6.25;;
27257;SDS011;62045;49.986;8.672;2022-08-18T13:42:30;7.85;;;6.25;;
27257;SDS011;62045;49.986;8.672;2022-08-18T13:47:39;8.45;;;6.50;;
27257;SDS011;62045;49.986;8.672;2022-08-18T13:52:41;8.85;;;6.47;;
27257;SDS011;62045;49.986;8.672;2022-08-18T13:57:44;7.05;;;6.00;;
27257;SDS011;62045;49.986;8.672;2022-08-18T14:02:46;8.85;;;6.60;;
27257;SDS011;62045;49.986;8.672;2022-08-18T14:07:47;7.88;;;6.40;;
27257;SDS011;62045;49.986;8.672;2022-08-18T14:12:50;8.45;;;7.13;;
27257;SDS011;62045;49.986;8.672;2022-08-18T14:17:53;8.25;;;6.80;;
27257;SDS011;62045;49.986;8.672;2022-08-18T14:22:55;7.15;;;6.45;;
27257;SDS011;62045;49.986;8.672;2022-08-18T14:32:59;6.80;;;5.80;;
27257;SDS011;62045;49.986;8.672;2022-08-18T14:38:00;7.32;;;6.00;;
27257;SDS011;62045;49.986;8.672;2022-08-18T14:43:03;8.98;;;6.45;;
27257;SDS011;62045;49.986;8.672;2022-08-18T14:48:04;7.03;;;6.30;;
27257;SDS011;62045;49.986;8.672;2022-08-18T14:53:05;6.97;;;6.28;;
27257;SDS011;62045;49.986;8.672;2022-08-18T14:58:08;6.03;;;5.43;;
27257;SDS011;62045;49.986;8.672;2022-08-18T15:03:09;9.80;;;6.17;;
27257;SDS011;62045;49.986;8.672;2022-08-18T15:08:09;5.93;;;5.35;;
27257;SDS011;62045;49.986;8.672;2022-08-18T15:13:12;7.47;;;5.75;;
27257;SDS011;62045;49.986;8.672;2022-08-18T15:18:13;5.72;;;4.72;;
27257;SDS011;62045;49.986;8.672;2022-08-18T15:23:14;7.53;;;5.85;;
27257;SDS011;62045;49.986;8.672;2022-08-18T15:28:17;6.45;;;5.47;;
27257;SDS011;62045;49.986;8.672;2022-08-18T15:33:19;6.78;;;5.47;;
27257;SDS011;62045;49.986;8.672;2022-08-18T15:38:21;7.35;;;5.45;;
27257;SDS011;62045;49.986;8.672;2022-08-18T15:43:26;6.00;;;5.32;;
27257;SDS011;62045;49.986;8.672;2022-08-18T15:48:29;6.95;;;5.00;;
27257;SDS011;62045;49.986;8.672;2022-08-18T15:53:29;6.47;;;5.32;;
27257;SDS011;62045;49.986;8.672;2022-08-18T15:58:32;6.00;;;5.40;;
27257;SDS011;62045;49.986;8.672;2022-08-18T16:03:33;6.00;;;5.37;;
27257;SDS011;62045;49.986;8.672;2022-08-18T16:08:33;6.90;;;5.90;;
27257;SDS011;62045;49.986;8.672;2022-08-18T16:13:36;5.88;;;5.22;;
27257;SDS011;62045;49.986;8.672;2022-08-18T16:18:37;8.13;;;5.35;;
27257;SDS011;62045;49.986;8.672;2022-08-18T16:23:39;5.88;;;5.10;;
27257;SDS011;62045;49.986;8.672;2022-08-18T16:28:43;7.22;;;4.72;;
27257;SDS011;62045;49.986;8.672;2022-08-18T16:33:45;6.72;;;5.32;;
27257;SDS011;62045;49.986;8.672;2022-08-18T16:38:46;7.35;;;4.93;;
27257;SDS011;62045;49.986;8.672;2022-08-18T16:43:48;5.85;;;5.25;;
27257;SDS011;62045;49.986;8.672;2022-08-18T16:48:49;6.33;;;5.33;;
27257;SDS011;62045;49.986;8.672;2022-08-18T16:53:51;6.03;;;5.43;;
27257;SDS011;62045;49.986;8.672;2022-08-18T16:58:54;5.78;;;5.10;;
27257;SDS011;62045;49.986;8.672;2022-08-18T17:03:55;6.88;;;5.38;;
27257;SDS011;62045;49.986;8.672;2022-08-18T17:08:56;5.78;;;5.20;;
27257;SDS011;62045;49.986;8.672;2022-08-18T17:13:59;5.65;;;5.05;;
27257;SDS011;62045;49.986;8.672;2022-08-18T17:19:00;5.85;;;5.20;;
27257;SDS011;62045;49.986;8.672;2022-08-18T17:24:03;5.55;;;4.93;;
27257;SDS011;62045;49.986;8.672;2022-08-18T17:29:09;5.50;;;4.88;;
27257;SDS011;62045;49.986;8.672;2022-08-18T17:34:15;5.47;;;4.93;;
27257;SDS011;62045;49.986;8.672;2022-08-18T17:39:19;6.10;;;5.50;;
27257;SDS011;62045;49.986;8.672;2022-08-18T17:44:26;6.30;;;5.10;;
27257;SDS011;62045;49.986;8.672;2022-08-18T17:49:28;5.60;;;5.00;;
27257;SDS011;62045;49.986;8.672;2022-08-18T17:54:34;5.43;;;4.93;;
27257;SDS011;62045;49.986;8.672;2022-08-18T17:59:39;6.45;;;5.20;;
27257;SDS011;62045;49.986;8.672;2022-08-18T18:04:45;5.63;;;5.05;;
27257;SDS011;62045;49.986;8.672;2022-08-18T18:09:51;6.03;;;5.35;;
27257;SDS011;62045;49.986;8.672;2022-08-18T18:14:56;6.05;;;5.22;;
27257;SDS011;62045;49.986;8.672;2022-08-18T18:20:09;6.03;;;5.15;;
27257;SDS011;62045;49.986;8.672;2022-08-18T18:25:13;5.65;;;4.88;;
27257;SDS011;62045;49.986;8.672;2022-08-18T18:30:30;5.60;;;5.10;;
27257;SDS011;62045;49.986;8.672;2022-08-18T18:35:46;5.63;;;5.00;;
27257;SDS011;62045;49.986;8.672;2022-08-18T18:40:53;6.25;;;5.60;;
27257;SDS011;62045;49.986;8.672;2022-08-18T18:51:27;5.95;;;5.35;;
27257;SDS011;62045;49.986;8.672;2022-08-18T18:56:34;5.70;;;5.10;;
27257;SDS011;62045;49.986;8.672;2022-08-18T19:01:41;5.97;;;5.40;;
27257;SDS011;62045;49.986;8.672;2022-08-18T19:06:47;5.30;;;4.80;;
27257;SDS011;62045;49.986;8.672;2022-08-18T19:11:56;6.50;;;5.47;;
27257;SDS011;62045;49.986;8.672;2022-08-18T19:17:09;7.05;;;5.65;;
27257;SDS011;62045;49.986;8.672;2022-08-18T19:22:18;5.72;;;5.22;;
27257;SDS011;62045;49.986;8.672;2022-08-18T19:27:26;5.47;;;4.97;;
27257;SDS011;62045;49.986;8.672;2022-08-18T19:32:37;7.72;;;5.90;;
27257;SDS011;62045;49.986;8.672;2022-08-18T19:43:03;7.13;;;5.90;;
27257;SDS011;62045;49.986;8.672;2022-08-18T19:48:14;6.00;;;5.40;;
27257;SDS011;62045;49.986;8.672;2022-08-18T19:53:35;6.55;;;5.70;;
27257;SDS011;62045;49.986;8.672;2022-08-18T20:04:30;6.10;;;5.40;;
27257;SDS011;62045;49.986;8.672;2022-08-18T20:09:41;6.22;;;5.40;;
27257;SDS011;62045;49.986;8.672;2022-08-18T20:15:00;6.63;;;5.93;;
27257;SDS011;62045;49.986;8.672;2022-08-18T20:20:11;6.15;;;5.55;;
27257;SDS011;62045;49.986;8.672;2022-08-18T20:30:50;6.38;;;5.38;;
27257;SDS011;62045;49.986;8.672;2022-08-18T20:36:08;6.13;;;5.53;;
27257;SDS011;62045;49.986;8.672;2022-08-18T20:41:33;6.13;;;5.45;;
27257;SDS011;62045;49.986;8.672;2022-08-18T20:46:42;5.55;;;5.05;;
27257;SDS011;62045;49.986;8.672;2022-08-18T20:51:53;6.75;;;6.07;;
27257;SDS011;62045;49.986;8.672;2022-08-18T20:57:00;6.00;;;5.32;;
27257;SDS011;62045;49.986;8.672;2022-08-18T21:02:04;5.85;;;5.25;;
27257;SDS011;62045;49.986;8.672;2022-08-18T21:07:15;6.10;;;5.50;;
27257;SDS011;62045;49.986;8.672;2022-08-18T21:12:24;6.57;;;5.85;;
27257;SDS011;62045;49.986;8.672;2022-08-18T21:17:27;6.22;;;5.63;;
27257;SDS011;62045;49.986;8.672;2022-08-18T21:22:30;7.07;;;5.65;;
27257;SDS011;62045;49.986;8.672;2022-08-18T21:27:32;8.32;;;6.07;;
27257;SDS011;62045;49.986;8.672;2022-08-18T21:32:35;6.25;;;5.65;;
27257;SDS011;62045;49.986;8.672;2022-08-18T21:37:39;5.88;;;5.30;;
27257;SDS011;62045;49.986;8.672;2022-08-18T21:42:41;6.22;;;5.53;;
27257;SDS011;62045;49.986;8.672;2022-08-18T21:47:47;6.50;;;5.75;;
27257;SDS011;62045;49.986;8.672;2022-08-18T21:52:53;6.10;;;5.47;;
27257;SDS011;62045;49.986;8.672;2022-08-18T21:57:59;5.63;;;5.03;;
27257;SDS011;62045;49.986;8.672;2022-08-18T22:03:10;6.25;;;5.47;;
27257;SDS011;62045;49.986;8.672;2022-08-18T22:08:21;5.72;;;5.10;;
27257;SDS011;62045;49.986;8.672;2022-08-18T22:13:25;6.18;;;5.57;;
27257;SDS011;62045;49.986;8.672;2022-08-18T22:23:38;5.85;;;5.00;;
27257;SDS011;62045;49.986;8.672;2022-08-18T22:28:48;6.03;;;5.43;;
27257;SDS011;62045;49.986;8.672;2022-08-18T22:33:54;5.93;;;5.32;;
27257;SDS011;62045;49.986;8.672;2022-08-18T22:38:56;6.13;;;5.53;;
27257;SDS011;62045;49.986;8.672;2022-08-18T22:43:59;6.53;;;5.82;;
27257;SDS011;62045;49.986;8.672;2022-08-18T22:49:00;6.20;;;5.45;;
27257;SDS011;62045;49.986;8.672;2022-08-18T22:54:02;5.22;;;4.72;;
27257;SDS011;62045;49.986;8.672;2022-08-18T22:59:04;5.97;;;5.38;;
27257;SDS011;62045;49.986;8.672;2022-08-18T23:04:07;5.82;;;5.32;;
27257;SDS011;62045;49.986;8.672;2022-08-18T23:09:09;5.75;;;5.18;;
27257;SDS011;62045;49.986;8.672;2022-08-18T23:14:10;5.67;;;5.07;;
27257;SDS011;62045;49.986;8.672;2022-08-18T23:19:12;6.20;;;5.60;;
27257;SDS011;62045;49.986;8.672;2022-08-18T23:24:16;5.60;;;5.10;;
27257;SDS011;62045;49.986;8.672;2022-08-18T23:29:18;5.85;;;5.30;;
27257;SDS011;62045;49.986;8.672;2022-08-18T23:34:21;6.07;;;5.30;;
27257;SDS011;62045;49.986;8.672;2022-08-18T23:39:24;5.60;;;4.90;;
27257;SDS011;62045;49.986;8.672;2022-08-18T23:44:26;6.05;;;5.45;;
27257;SDS011;62045;49.986;8.672;2022-08-18T23:49:27;5.78;;;5.20;;
27257;SDS011;62045;49.986;8.672;2022-08-18T23:54:32;6.13;;;5.53;;
27257;SDS011;62045;49.986;8.672;2022-08-18T23:59:34;6.63;;;5.93;;
